Fort Rice, North Dakota
Current Conditions -  °F | °C
As of 3:55 PM on Tuesday 25 Nov 2014 (Local Time) from KY19 Reporting Station
Light Snow Light Snow  
Wind Chill: 24°   Ceiling: 300
Heat Index: 32°   Visibility: 2.5mi
Dew Point: 32°   Wind: 10mph
Humidity: 100%   Direction: 180°S
Pressure: 29.69"   Gusts: NA
Location:  46.7289°N, 100.983°W
Report Text: KY19 252155Z AUTO 18009KT 2 1/2SM -SN OVC003 00/00 A2969 RMK AO2 P0007
Loading
Personal Weather Stations






























Interactive Weather Map New forecast layout! Learn more

10-Day Weather Forecast

Advertisements
Track Severe Weather on mobile